Time;durP1;ratioP1;P1;durP2;ratioP2;P2;SDS_P1;SDS_P2;PMS_P1;PMS_P2;Temp;Humidity;BMP_temperature;BMP_pressure;BME280_temperature;BME280_humidity;BME280_pressure;Samples;Min_cycle;Max_cycle;Signal;HPM_P1;HPM_P2
2024/01/24 00:02:04;;;;;;;;;;;14.30;99.90;;;;;;7331531;19;108614;-64
2024/01/24 00:04:31;;;;;;;;;;;14.30;99.90;;;;;;7331879;19;108560;-64
2024/01/24 00:06:58;;;;;;;;;;;14.30;99.90;;;;;;7331216;19;113294;-64
2024/01/24 00:09:25;;;;;;;;;;;14.30;99.90;;;;;;7336002;19;108557;-64
2024/01/24 00:11:52;;;;;;;;;;;14.20;99.90;;;;;;7333394;19;110515;-65
2024/01/24 00:14:19;;;;;;;;;;;14.30;99.90;;;;;;7332508;19;110489;-65
2024/01/24 00:16:46;;;;;;;;;;;14.30;99.90;;;;;;7332430;19;108687;-65
2024/01/24 00:19:13;;;;;;;;;;;14.30;99.90;;;;;;7336592;19;109443;-64
2024/01/24 00:21:40;;;;;;;;;;;14.40;99.90;;;;;;7333497;19;109482;-65
2024/01/24 00:24:08;;;;;;;;;;;14.40;99.90;;;;;;7335332;19;109162;-65
2024/01/24 00:26:38;;;;;;;;;;;14.40;99.90;;;;;;7331947;19;109077;-64
2024/01/24 00:29:05;;;;;;;;;;;14.30;99.90;;;;;;7333470;19;110578;-65
2024/01/24 00:31:34;;;;;;;;;;;14.40;99.90;;;;;;7329983;19;109510;-64
2024/01/24 00:34:01;;;;;;;;;;;14.40;99.90;;;;;;7331558;19;110089;-64
2024/01/24 00:36:29;;;;;;;;;;;14.40;99.90;;;;;;7334996;19;109082;-65
2024/01/24 00:38:56;;;;;;;;;;;14.30;99.90;;;;;;7336532;19;111481;-64
2024/01/24 00:41:23;;;;;;;;;;;14.40;99.90;;;;;;7331666;19;109092;-65
2024/01/24 00:43:50;;;;;;;;;;;14.40;99.90;;;;;;7336137;19;112504;-64
2024/01/24 00:46:17;;;;;;;;;;;14.40;99.90;;;;;;7330825;19;109664;-65
2024/01/24 00:48:45;;;;;;;;;;;14.40;99.90;;;;;;7333040;19;108578;-64
2024/01/24 00:51:12;;;;;;;;;;;14.40;99.90;;;;;;7328283;19;109370;-65
2024/01/24 00:53:39;;;;;;;;;;;14.40;99.90;;;;;;7334269;19;110104;-64
2024/01/24 00:56:07;;;;;;;;;;;14.40;99.90;;;;;;7329471;19;110189;-64
2024/01/24 00:58:37;;;;;;;;;;;14.40;99.90;;;;;;7331254;19;109452;-65
2024/01/24 01:01:13;;;;;;;;;;;14.40;99.90;;;;;;7336478;19;109486;-65
2024/01/24 01:03:40;;;;;;;;;;;14.40;99.90;;;;;;7331776;19;108805;-64
2024/01/24 01:06:08;;;;;;;;;;;14.40;99.90;;;;;;7338342;19;109308;-64
2024/01/24 01:08:35;;;;;;;;;;;14.40;99.90;;;;;;7338988;19;108654;-65
2024/01/24 01:11:04;;;;;;;;;;;14.40;99.90;;;;;;7340639;19;108376;-65
2024/01/24 01:13:34;;;;;;;;;;;14.30;99.90;;;;;;7337291;19;109783;-64
2024/01/24 01:16:01;;;;;;;;;;;14.30;99.90;;;;;;7340999;19;108866;-65
2024/01/24 01:18:28;;;;;;;;;;;14.30;99.90;;;;;;7338934;19;108876;-64
2024/01/24 01:20:56;;;;;;;;;;;14.30;99.90;;;;;;7338937;19;109194;-64
2024/01/24 01:23:23;;;;;;;;;;;14.30;99.90;;;;;;7342945;19;108446;-65
2024/01/24 01:25:51;;;;;;;;;;;14.20;99.90;;;;;;7339204;19;109537;-64
2024/01/24 01:28:18;;;;;;;;;;;14.20;99.90;;;;;;7340770;19;108931;-64
2024/01/24 01:30:45;;;;;;;;;;;14.20;99.90;;;;;;7338419;19;110504;-67
2024/01/24 01:33:12;;;;;;;;;;;14.20;99.90;;;;;;7336346;19;110696;-65
2024/01/24 01:35:40;;;;;;;;;;;14.20;99.90;;;;;;7341445;19;108756;-65
2024/01/24 01:38:07;;;;;;;;;;;14.20;99.90;;;;;;7336268;19;111010;-65
2024/01/24 01:40:34;;;;;;;;;;;14.10;99.90;;;;;;7338305;19;109731;-65
2024/01/24 01:43:08;;;;;;;;;;;14.10;99.90;;;;;;7341910;19;109015;-66
2024/01/24 01:45:35;;;;;;;;;;;14.10;99.90;;;;;;7343322;19;108763;-64
2024/01/24 01:48:02;;;;;;;;;;;14.10;99.90;;;;;;7338991;19;108773;-67
2024/01/24 01:50:30;;;;;;;;;;;14.00;99.90;;;;;;7338101;19;109249;-64
2024/01/24 01:52:57;;;;;;;;;;;14.00;99.90;;;;;;7338147;19;109741;-64
2024/01/24 01:55:24;;;;;;;;;;;14.00;99.90;;;;;;7337594;19;108971;-64
2024/01/24 01:57:52;;;;;;;;;;;14.00;99.90;;;;;;7339503;19;112301;-63
2024/01/24 02:00:20;;;;;;;;;;;14.00;99.90;;;;;;7338209;19;111352;-65
2024/01/24 02:02:50;;;;;;;;;;;13.90;99.90;;;;;;7339645;19;109191;-64
2024/01/24 02:05:18;;;;;;;;;;;14.00;99.90;;;;;;7338300;19;110685;-63
2024/01/24 02:07:45;;;;;;;;;;;13.90;99.90;;;;;;7343545;19;111150;-65
2024/01/24 02:10:14;;;;;;;;;;;13.90;99.90;;;;;;7337220;19;108849;-64
2024/01/24 02:12:41;;;;;;;;;;;14.00;99.90;;;;;;7337986;19;110242;-64
2024/01/24 02:15:09;;;;;;;;;;;13.90;99.90;;;;;;7334556;19;109624;-64
2024/01/24 02:17:37;;;;;;;;;;;13.90;99.90;;;;;;7338856;19;108937;-64
2024/01/24 02:20:05;;;;;;;;;;;13.90;99.90;;;;;;7335595;19;109558;-64
2024/01/24 02:22:32;;;;;;;;;;;13.90;99.90;;;;;;7334833;19;108737;-64
2024/01/24 02:25:00;;;;;;;;;;;13.90;99.90;;;;;;7336338;19;110679;-65
2024/01/24 02:27:27;;;;;;;;;;;13.90;99.90;;;;;;7335805;19;110166;-65
2024/01/24 02:30:00;;;;;;;;;;;13.90;99.90;;;;;;7345531;19;110090;-64
2024/01/24 02:32:27;;;;;;;;;;;13.90;99.90;;;;;;7335609;19;109576;-64
2024/01/24 02:34:54;;;;;;;;;;;13.90;99.90;;;;;;7337362;19;109056;-63
2024/01/24 02:37:22;;;;;;;;;;;13.90;99.90;;;;;;7332199;19;109752;-64
2024/01/24 02:39:49;;;;;;;;;;;13.80;99.90;;;;;;7337466;19;109086;-65
2024/01/24 02:42:16;;;;;;;;;;;13.80;99.90;;;;;;7333363;19;109170;-64
2024/01/24 02:44:43;;;;;;;;;;;13.80;99.90;;;;;;7337637;19;110083;-64
2024/01/24 02:47:11;;;;;;;;;;;13.80;99.90;;;;;;7337451;19;109426;-64
2024/01/24 02:49:39;;;;;;;;;;;13.80;99.90;;;;;;7343056;19;108568;-64
2024/01/24 02:52:06;;;;;;;;;;;13.80;99.90;;;;;;7337863;19;109469;-67
2024/01/24 02:54:35;;;;;;;;;;;13.80;99.90;;;;;;7337563;19;109293;-64
2024/01/24 02:57:03;;;;;;;;;;;13.80;99.90;;;;;;7338235;19;110623;-67
2024/01/24 02:59:36;;;;;;;;;;;13.80;99.90;;;;;;7337993;19;110689;-67
2024/01/24 03:02:03;;;;;;;;;;;13.80;99.90;;;;;;7337851;19;108707;-64
2024/01/24 03:04:30;;;;;;;;;;;13.80;99.90;;;;;;7336915;19;108927;-65
2024/01/24 03:06:57;;;;;;;;;;;13.80;99.90;;;;;;7336109;19;110226;-64
2024/01/24 03:09:25;;;;;;;;;;;13.80;99.90;;;;;;7336872;19;109280;-64
2024/01/24 03:11:52;;;;;;;;;;;13.80;99.90;;;;;;7341103;19;108776;-65
2024/01/24 03:14:21;;;;;;;;;;;13.80;99.90;;;;;;7327247;19;108461;-66
2024/01/24 03:16:48;;;;;;;;;;;13.80;99.90;;;;;;7338019;19;109979;-64
2024/01/24 03:19:15;;;;;;;;;;;13.80;99.90;;;;;;7334452;19;110089;-66
2024/01/24 03:21:43;;;;;;;;;;;13.80;99.90;;;;;;7334418;19;108896;-64
2024/01/24 03:24:10;;;;;;;;;;;13.80;99.90;;;;;;7333703;19;109348;-64
2024/01/24 03:26:37;;;;;;;;;;;13.80;99.90;;;;;;7333516;19;110516;-64
2024/01/24 03:29:04;;;;;;;;;;;13.80;99.90;;;;;;7334353;19;108896;-64
2024/01/24 03:31:31;;;;;;;;;;;13.80;99.90;;;;;;7335671;19;109129;-65
2024/01/24 03:33:58;;;;;;;;;;;13.80;99.90;;;;;;7342774;19;109418;-64
2024/01/24 03:36:33;;;;;;;;;;;13.80;99.90;;;;;;7336765;19;110168;-64
2024/01/24 03:39:04;;;;;;;;;;;13.80;99.90;;;;;;7337807;19;109180;-64
2024/01/24 03:41:31;;;;;;;;;;;13.80;99.90;;;;;;7334928;19;110292;-64
2024/01/24 03:43:58;;;;;;;;;;;13.90;99.90;;;;;;7336734;19;108615;-65
2024/01/24 03:46:25;;;;;;;;;;;13.80;99.90;;;;;;7335430;19;110257;-64
2024/01/24 03:48:52;;;;;;;;;;;13.80;99.90;;;;;;7336587;19;108963;-64
2024/01/24 03:51:19;;;;;;;;;;;13.80;99.90;;;;;;7335187;19;109416;-64
2024/01/24 03:53:46;;;;;;;;;;;13.80;99.90;;;;;;7336303;19;109565;-64
2024/01/24 03:56:14;;;;;;;;;;;13.80;99.90;;;;;;7340942;19;108754;-64
2024/01/24 03:58:41;;;;;;;;;;;13.80;99.90;;;;;;7334239;19;109152;-63
2024/01/24 04:01:08;;;;;;;;;;;13.80;99.90;;;;;;7332731;19;109290;-62
2024/01/24 04:03:38;;;;;;;;;;;13.70;99.90;;;;;;7335881;19;108363;-62
2024/01/24 04:06:05;;;;;;;;;;;13.80;99.90;;;;;;7333662;19;109353;-63
2024/01/24 04:08:33;;;;;;;;;;;13.70;99.90;;;;;;7329562;19;109201;-64
2024/01/24 04:11:00;;;;;;;;;;;13.70;99.90;;;;;;7337280;19;109547;-66
2024/01/24 04:13:27;;;;;;;;;;;13.70;99.90;;;;;;7328723;19;112884;-63
2024/01/24 04:15:54;;;;;;;;;;;13.70;99.90;;;;;;7330465;19;108945;-63
2024/01/24 04:18:21;;;;;;;;;;;13.70;99.90;;;;;;7337966;19;108954;-63
2024/01/24 04:20:49;;;;;;;;;;;13.70;99.90;;;;;;7333188;19;108982;-63
2024/01/24 04:23:16;;;;;;;;;;;13.70;99.90;;;;;;7332889;19;110022;-63
2024/01/24 04:25:43;;;;;;;;;;;13.70;99.90;;;;;;7332466;19;110362;-64
2024/01/24 04:28:10;;;;;;;;;;;13.70;99.90;;;;;;7334404;19;108891;-63
2024/01/24 04:30:37;;;;;;;;;;;13.70;99.90;;;;;;7332569;19;110863;-62
2024/01/24 04:33:05;;;;;;;;;;;13.70;99.90;;;;;;7332463;19;109320;-63
2024/01/24 04:35:32;;;;;;;;;;;13.70;99.90;;;;;;7331236;19;108991;-63
2024/01/24 04:37:59;;;;;;;;;;;13.70;99.90;;;;;;7336617;19;109389;-63
2024/01/24 04:40:26;;;;;;;;;;;13.70;99.90;;;;;;7339708;19;109081;-63
2024/01/24 04:42:53;;;;;;;;;;;13.70;99.90;;;;;;7339516;19;109169;-63
2024/01/24 04:45:20;;;;;;;;;;;13.60;99.90;;;;;;7342218;19;109168;-63
2024/01/24 04:47:47;;;;;;;;;;;13.70;99.90;;;;;;7341151;19;109046;-63
2024/01/24 04:50:15;;;;;;;;;;;13.70;99.90;;;;;;7337345;19;108982;-63
2024/01/24 04:52:42;;;;;;;;;;;13.70;99.90;;;;;;7338248;19;109914;-63
2024/01/24 04:55:10;;;;;;;;;;;13.70;99.90;;;;;;7338550;19;109136;-65
2024/01/24 04:57:38;;;;;;;;;;;13.60;99.90;;;;;;7338293;19;108849;-63
2024/01/24 05:00:09;;;;;;;;;;;13.60;99.90;;;;;;7341654;19;113243;-63
2024/01/24 05:02:44;;;;;;;;;;;13.60;99.90;;;;;;7339747;19;110832;-63
2024/01/24 05:05:14;;;;;;;;;;;13.60;99.90;;;;;;7339422;19;109129;-63
2024/01/24 05:07:41;;;;;;;;;;;13.60;99.90;;;;;;7337561;19;111450;-63
2024/01/24 05:10:08;;;;;;;;;;;13.60;99.90;;;;;;7340414;19;108364;-63
2024/01/24 05:12:36;;;;;;;;;;;13.60;99.90;;;;;;7336877;19;113375;-63
2024/01/24 05:15:03;;;;;;;;;;;13.60;99.90;;;;;;7338998;19;108799;-63
2024/01/24 05:17:31;;;;;;;;;;;13.60;99.90;;;;;;7338232;19;108912;-63
2024/01/24 05:19:58;;;;;;;;;;;13.60;99.90;;;;;;7336187;19;109195;-63
2024/01/24 05:22:25;;;;;;;;;;;13.60;99.90;;;;;;7341979;19;108991;-64
2024/01/24 05:24:52;;;;;;;;;;;13.60;99.90;;;;;;7335290;19;109675;-63
2024/01/24 05:27:19;;;;;;;;;;;13.50;99.90;;;;;;7338782;19;109642;-62
2024/01/24 05:29:47;;;;;;;;;;;13.50;99.90;;;;;;7336218;19;109267;-63
2024/01/24 05:32:14;;;;;;;;;;;13.50;99.90;;;;;;7335822;19;109095;-63
2024/01/24 05:34:41;;;;;;;;;;;13.50;99.90;;;;;;7336511;19;108677;-63
2024/01/24 05:37:08;;;;;;;;;;;13.50;99.90;;;;;;7337699;19;109909;-63
2024/01/24 05:39:35;;;;;;;;;;;13.50;99.90;;;;;;7338409;19;109155;-63
2024/01/24 05:42:03;;;;;;;;;;;13.50;99.90;;;;;;7337962;19;111985;-63
2024/01/24 05:44:30;;;;;;;;;;;13.40;99.90;;;;;;7342722;19;109405;-63
2024/01/24 05:46:57;;;;;;;;;;;13.40;99.90;;;;;;7338799;19;109097;-63
2024/01/24 05:49:24;;;;;;;;;;;13.50;99.90;;;;;;7338612;19;108675;-63
2024/01/24 05:51:52;;;;;;;;;;;13.50;99.90;;;;;;7336967;19;109135;-63
2024/01/24 05:54:19;;;;;;;;;;;13.40;99.90;;;;;;7338013;19;110226;-63
2024/01/24 05:56:49;;;;;;;;;;;13.40;99.90;;;;;;7339435;19;109065;-65
2024/01/24 05:59:26;;;;;;;;;;;13.40;99.90;;;;;;7337707;19;109203;-63
2024/01/24 06:02:08;;;;;;;;;;;13.40;99.90;;;;;;7339886;19;109754;-62
2024/01/24 06:04:35;;;;;;;;;;;13.40;99.90;;;;;;7335992;19;109142;-62
2024/01/24 06:07:03;;;;;;;;;;;13.30;99.90;;;;;;7341318;19;110053;-64
2024/01/24 06:09:30;;;;;;;;;;;13.30;99.90;;;;;;7341035;19;110935;-63
2024/01/24 06:11:58;;;;;;;;;;;13.30;99.90;;;;;;7335256;19;110297;-64
2024/01/24 06:14:25;;;;;;;;;;;13.30;99.90;;;;;;7338953;19;108881;-63
2024/01/24 06:16:52;;;;;;;;;;;13.30;99.90;;;;;;7335888;19;109240;-64
2024/01/24 06:19:19;;;;;;;;;;;13.30;99.90;;;;;;7334300;19;110990;-63
2024/01/24 06:21:46;;;;;;;;;;;13.30;99.90;;;;;;7333293;19;108808;-63
2024/01/24 06:24:14;;;;;;;;;;;13.20;99.90;;;;;;7337120;19;110002;-63
2024/01/24 06:26:41;;;;;;;;;;;13.20;99.90;;;;;;7336658;19;109118;-63
2024/01/24 06:29:08;;;;;;;;;;;13.20;99.90;;;;;;7343653;19;108576;-63
2024/01/24 06:31:35;;;;;;;;;;;13.20;99.90;;;;;;7337534;19;110032;-64
2024/01/24 06:34:02;;;;;;;;;;;13.20;99.90;;;;;;7338061;19;108413;-64
2024/01/24 06:36:29;;;;;;;;;;;13.30;99.90;;;;;;7337033;19;110559;-63
2024/01/24 06:38:56;;;;;;;;;;;13.30;99.90;;;;;;7334425;19;114734;-62
2024/01/24 06:41:24;;;;;;;;;;;13.20;99.90;;;;;;7336115;19;108807;-64
2024/01/24 06:43:51;;;;;;;;;;;13.20;99.90;;;;;;7336399;19;108356;-65
2024/01/24 06:46:19;;;;;;;;;;;13.20;99.90;;;;;;7334408;19;108794;-64
2024/01/24 06:48:46;;;;;;;;;;;13.20;99.90;;;;;;7332591;19;110143;-64
2024/01/24 06:51:15;;;;;;;;;;;13.30;99.90;;;;;;7337524;19;108208;-67
2024/01/24 06:53:42;;;;;;;;;;;13.20;99.90;;;;;;7337065;19;110867;-67
2024/01/24 06:56:09;;;;;;;;;;;13.20;99.90;;;;;;7336357;19;109162;-65
2024/01/24 06:58:37;;;;;;;;;;;13.20;99.90;;;;;;7338162;19;110065;-64
2024/01/24 07:01:04;;;;;;;;;;;13.20;99.90;;;;;;7339392;19;108524;-64
2024/01/24 07:03:32;;;;;;;;;;;13.20;99.90;;;;;;7334291;19;108932;-64
2024/01/24 07:05:59;;;;;;;;;;;13.20;99.90;;;;;;7335538;19;109147;-63
2024/01/24 07:08:27;;;;;;;;;;;13.10;99.90;;;;;;7338583;19;108785;-63
2024/01/24 07:10:54;;;;;;;;;;;13.10;99.90;;;;;;7340120;19;108641;-64
2024/01/24 07:13:21;;;;;;;;;;;13.10;99.90;;;;;;7337041;19;108752;-63
2024/01/24 07:15:48;;;;;;;;;;;13.10;99.90;;;;;;7334349;19;108297;-64
2024/01/24 07:18:16;;;;;;;;;;;13.00;99.90;;;;;;7333515;19;112038;-64
2024/01/24 07:20:43;;;;;;;;;;;13.00;99.90;;;;;;7335182;19;108941;-64
2024/01/24 07:23:10;;;;;;;;;;;13.00;99.90;;;;;;7335807;19;109000;-64
2024/01/24 07:25:37;;;;;;;;;;;13.00;99.90;;;;;;7335946;19;110018;-64
2024/01/24 07:28:06;;;;;;;;;;;12.90;99.90;;;;;;7337101;19;109146;-65
2024/01/24 07:30:33;;;;;;;;;;;12.90;99.90;;;;;;7336180;19;108407;-64
2024/01/24 07:33:03;;;;;;;;;;;12.90;99.90;;;;;;7343632;19;110411;-64
2024/01/24 07:35:30;;;;;;;;;;;12.90;99.90;;;;;;7336874;19;110062;-64
2024/01/24 07:37:57;;;;;;;;;;;12.90;99.90;;;;;;7338195;19;109235;-65
2024/01/24 07:40:27;;;;;;;;;;;12.90;99.90;;;;;;7336412;19;108497;-64
2024/01/24 07:42:55;;;;;;;;;;;12.80;99.90;;;;;;7332438;19;108511;-65
2024/01/24 07:45:25;;;;;;;;;;;12.80;99.90;;;;;;7337292;19;112161;-65
2024/01/24 07:47:52;;;;;;;;;;;12.80;99.90;;;;;;7333205;19;108834;-65
2024/01/24 07:50:19;;;;;;;;;;;12.80;99.90;;;;;;7336105;19;108517;-64
2024/01/24 07:52:47;;;;;;;;;;;12.80;99.90;;;;;;7335688;19;110327;-65
2024/01/24 07:55:15;;;;;;;;;;;12.80;99.90;;;;;;7340368;19;110010;-65
2024/01/24 07:57:50;;;;;;;;;;;12.70;99.90;;;;;;7335706;19;110193;-64
2024/01/24 08:00:18;;;;;;;;;;;12.70;99.90;;;;;;7331241;19;110086;-64
2024/01/24 08:02:46;;;;;;;;;;;12.70;99.90;;;;;;7334164;19;109671;-65
2024/01/24 08:05:17;;;;;;;;;;;12.70;99.90;;;;;;7333804;19;110399;-64
2024/01/24 08:07:44;;;;;;;;;;;12.70;99.90;;;;;;7334681;19;108752;-64
2024/01/24 08:10:11;;;;;;;;;;;12.70;99.90;;;;;;7334781;19;108710;-65
2024/01/24 08:12:39;;;;;;;;;;;12.70;99.90;;;;;;7333629;19;109196;-64
2024/01/24 08:15:09;;;;;;;;;;;12.70;99.90;;;;;;7330652;19;108727;-64
2024/01/24 08:17:37;;;;;;;;;;;12.60;99.90;;;;;;7339940;19;108979;-64
2024/01/24 08:20:04;;;;;;;;;;;12.60;99.90;;;;;;7334204;19;109677;-65
2024/01/24 08:22:32;;;;;;;;;;;12.60;99.90;;;;;;7335070;19;108217;-65
2024/01/24 08:24:59;;;;;;;;;;;12.60;99.90;;;;;;7334700;19;110817;-66
2024/01/24 08:27:26;;;;;;;;;;;12.60;99.90;;;;;;7330303;19;109753;-66
2024/01/24 08:29:53;;;;;;;;;;;12.60;99.90;;;;;;7331760;19;109471;-68
2024/01/24 08:32:20;;;;;;;;;;;12.60;99.90;;;;;;7332494;19;109141;-66
2024/01/24 08:34:47;;;;;;;;;;;12.60;99.90;;;;;;7334758;19;108648;-66
2024/01/24 08:37:14;;;;;;;;;;;12.60;99.90;;;;;;7334959;19;110006;-64
2024/01/24 08:39:42;;;;;;;;;;;12.60;99.90;;;;;;7338311;19;109388;-64
2024/01/24 08:42:09;;;;;;;;;;;12.60;99.90;;;;;;7331635;19;109530;-66
2024/01/24 08:44:36;;;;;;;;;;;12.60;99.90;;;;;;7335293;19;109916;-66
2024/01/24 08:47:04;;;;;;;;;;;12.60;99.90;;;;;;7333773;19;108893;-65
2024/01/24 08:49:31;;;;;;;;;;;12.60;99.90;;;;;;7333557;19;108890;-65
2024/01/24 08:51:58;;;;;;;;;;;12.60;99.90;;;;;;7332360;19;112061;-65
2024/01/24 08:54:26;;;;;;;;;;;12.60;99.90;;;;;;7334689;19;108928;-65
2024/01/24 08:56:53;;;;;;;;;;;12.60;99.90;;;;;;7333927;19;108651;-65
2024/01/24 08:59:21;;;;;;;;;;;12.60;99.90;;;;;;7332813;19;111784;-65
2024/01/24 09:01:48;;;;;;;;;;;12.60;99.90;;;;;;7339223;19;108204;-65
2024/01/24 09:04:16;;;;;;;;;;;12.60;99.90;;;;;;7331616;19;109733;-65
2024/01/24 09:06:44;;;;;;;;;;;12.60;99.90;;;;;;7335229;19;108364;-66
2024/01/24 09:09:15;;;;;;;;;;;12.60;99.90;;;;;;7333475;19;109887;-65
2024/01/24 09:11:42;;;;;;;;;;;12.50;99.90;;;;;;7333556;19;110245;-65
2024/01/24 09:14:22;;;;;;;;;;;12.60;99.90;;;;;;7332823;19;109557;-65
2024/01/24 09:16:50;;;;;;;;;;;12.60;99.90;;;;;;7334118;19;109325;-65
2024/01/24 09:19:17;;;;;;;;;;;12.60;99.90;;;;;;7332376;19;109248;-65
2024/01/24 09:21:45;;;;;;;;;;;12.60;99.90;;;;;;7339056;19;108767;-65
2024/01/24 09:24:13;;;;;;;;;;;12.60;99.90;;;;;;7332388;19;111000;-65
2024/01/24 09:26:40;;;;;;;;;;;12.70;99.90;;;;;;7338959;19;108452;-65
2024/01/24 09:29:11;;;;;;;;;;;12.70;99.90;;;;;;7340638;19;110370;-65
2024/01/24 09:31:45;;;;;;;;;;;12.60;99.90;;;;;;7342249;19;110707;-65
2024/01/24 09:34:13;;;;;;;;;;;12.60;99.90;;;;;;7339053;19;108971;-65
2024/01/24 09:36:40;;;;;;;;;;;12.70;99.90;;;;;;7340948;19;108611;-65
2024/01/24 09:39:09;;;;;;;;;;;12.70;99.90;;;;;;7339776;19;109622;-64
2024/01/24 09:41:46;;;;;;;;;;;12.70;99.90;;;;;;7338871;19;109003;-65
2024/01/24 09:44:15;;;;;;;;;;;12.70;99.90;;;;;;7342923;19;110811;-65
2024/01/24 09:46:43;;;;;;;;;;;12.70;99.90;;;;;;7337080;19;109438;-65
2024/01/24 09:49:10;;;;;;;;;;;12.70;99.90;;;;;;7339432;19;108467;-65
2024/01/24 09:51:39;;;;;;;;;;;12.70;99.90;;;;;;7338167;19;109196;-65
2024/01/24 09:54:07;;;;;;;;;;;12.70;99.90;;;;;;7339114;19;108923;-65
2024/01/24 09:56:38;;;;;;;;;;;12.70;99.90;;;;;;7341497;19;110220;-65
2024/01/24 09:59:05;;;;;;;;;;;12.70;99.90;;;;;;7338969;19;109232;-66
2024/01/24 10:01:34;;;;;;;;;;;12.80;99.90;;;;;;7339016;19;108822;-65
2024/01/24 10:04:01;;;;;;;;;;;12.70;99.90;;;;;;7336930;19;109430;-65
2024/01/24 10:06:29;;;;;;;;;;;12.80;99.90;;;;;;7343565;19;110806;-65
2024/01/24 10:08:56;;;;;;;;;;;12.80;99.90;;;;;;7339810;19;108235;-65
2024/01/24 10:11:24;;;;;;;;;;;12.80;99.90;;;;;;7338356;19;108990;-65
2024/01/24 10:13:55;;;;;;;;;;;12.80;99.90;;;;;;7338679;19;108679;-65
2024/01/24 10:16:23;;;;;;;;;;;12.80;99.90;;;;;;7335180;19;109724;-65
2024/01/24 10:18:50;;;;;;;;;;;12.80;99.90;;;;;;7339477;19;109078;-65
2024/01/24 10:21:17;;;;;;;;;;;12.90;99.90;;;;;;7339416;19;108755;-65
2024/01/24 10:23:45;;;;;;;;;;;12.90;99.90;;;;;;7339053;19;108731;-65
2024/01/24 10:26:12;;;;;;;;;;;13.00;99.90;;;;;;7334510;19;109075;-66
2024/01/24 10:28:39;;;;;;;;;;;13.00;99.90;;;;;;7336987;19;108929;-65
2024/01/24 10:31:07;;;;;;;;;;;13.00;99.90;;;;;;7334490;19;110295;-65
2024/01/24 10:33:34;;;;;;;;;;;13.00;99.90;;;;;;7336152;19;109018;-65
2024/01/24 10:36:01;;;;;;;;;;;13.00;99.90;;;;;;7336771;19;109373;-65
2024/01/24 10:38:42;;;;;;;;;;;13.10;99.90;;;;;;7334088;19;110026;-65
2024/01/24 10:41:11;;;;;;;;;;;13.10;99.90;;;;;;7336756;19;108309;-65
2024/01/24 10:43:45;;;;;;;;;;;13.10;99.90;;;;;;7339595;19;111407;-65
2024/01/24 10:46:13;;;;;;;;;;;13.10;99.90;;;;;;7337489;19;110040;-65
2024/01/24 10:48:41;;;;;;;;;;;13.20;99.90;;;;;;7337600;19;109205;-65
2024/01/24 10:51:09;;;;;;;;;;;13.20;99.90;;;;;;7341779;19;108374;-65
2024/01/24 10:53:39;;;;;;;;;;;13.20;99.90;;;;;;7337998;19;109515;-65
2024/01/24 10:56:07;;;;;;;;;;;13.20;99.90;;;;;;7337293;19;108991;-65
2024/01/24 10:58:34;;;;;;;;;;;13.20;99.90;;;;;;7336155;19;110470;-65
2024/01/24 11:01:01;;;;;;;;;;;13.30;99.90;;;;;;7336198;19;108858;-65
2024/01/24 11:03:29;;;;;;;;;;;13.30;99.90;;;;;;7336793;19;109089;-65
2024/01/24 11:05:58;;;;;;;;;;;13.30;99.90;;;;;;7336902;19;110156;-65
2024/01/24 11:09:05;;;;;;;;;;;13.30;99.90;;;;;;7338095;19;112297;-65
2024/01/24 11:11:33;;;;;;;;;;;13.40;99.90;;;;;;7338511;19;109400;-65
2024/01/24 11:14:03;;;;;;;;;;;13.40;99.90;;;;;;7332170;19;109013;-64
2024/01/24 11:16:38;;;;;;;;;;;13.40;99.90;;;;;;7333552;19;108443;-65
2024/01/24 11:19:19;;;;;;;;;;;13.40;99.90;;;;;;7331366;19;109789;-65
2024/01/24 11:21:50;;;;;;;;;;;13.40;99.90;;;;;;7331441;19;109478;-65
2024/01/24 11:24:36;;;;;;;;;;;13.50;99.90;;;;;;7328950;19;110602;-75
2024/01/24 11:27:04;;;;;;;;;;;13.50;99.90;;;;;;7332817;19;109287;-67
2024/01/24 11:29:33;;;;;;;;;;;13.60;99.90;;;;;;7330481;19;108709;-66
2024/01/24 11:32:00;;;;;;;;;;;13.60;99.90;;;;;;7332343;19;109574;-72
2024/01/24 11:34:27;;;;;;;;;;;13.70;99.90;;;;;;7337567;19;109694;-71
2024/01/24 11:36:55;;;;;;;;;;;13.70;99.90;;;;;;7332198;19;109058;-67
2024/01/24 11:39:28;;;;;;;;;;;13.70;99.90;;;;;;7334513;19;109402;-70
2024/01/24 11:42:15;;;;;;;;;;;13.80;99.90;;;;;;7334405;19;108934;-66
2024/01/24 11:44:42;;;;;;;;;;;13.80;99.90;;;;;;7337908;19;108762;-65
2024/01/24 11:47:10;;;;;;;;;;;13.80;99.90;;;;;;7339464;19;112745;-65
2024/01/24 11:49:38;;;;;;;;;;;13.90;99.90;;;;;;7332244;19;109019;-65
2024/01/24 11:52:06;;;;;;;;;;;13.90;99.90;;;;;;7333992;19;108773;-66
2024/01/24 11:54:33;;;;;;;;;;;14.00;99.90;;;;;;7335493;19;109133;-66
2024/01/24 11:57:00;;;;;;;;;;;14.00;99.90;;;;;;7340281;19;109024;-65
2024/01/24 11:59:27;;;;;;;;;;;14.00;99.90;;;;;;7334401;19;109154;-65
2024/01/24 12:01:55;;;;;;;;;;;14.10;99.90;;;;;;7336350;19;108402;-65
2024/01/24 12:04:22;;;;;;;;;;;14.10;99.90;;;;;;7328484;19;110472;-66
2024/01/24 12:06:53;;;;;;;;;;;14.00;99.90;;;;;;7332315;19;110318;-65
2024/01/24 12:09:21;;;;;;;;;;;14.00;99.90;;;;;;7333111;19;108650;-66
2024/01/24 12:11:50;;;;;;;;;;;14.00;99.90;;;;;;7332688;19;108727;-65
2024/01/24 12:14:18;;;;;;;;;;;14.00;99.90;;;;;;7330339;19;110115;-66
2024/01/24 12:16:45;;;;;;;;;;;14.00;99.90;;;;;;7334523;19;108636;-66
2024/01/24 12:19:16;;;;;;;;;;;14.10;99.90;;;;;;7335415;19;109566;-66
2024/01/24 12:21:44;;;;;;;;;;;14.20;99.90;;;;;;7333757;19;108888;-65
2024/01/24 12:24:11;;;;;;;;;;;14.20;99.90;;;;;;7333688;19;110026;-66
2024/01/24 12:26:39;;;;;;;;;;;14.20;99.90;;;;;;7332409;19;110160;-65
2024/01/24 12:29:11;;;;;;;;;;;14.10;99.90;;;;;;7331710;19;108715;-65
2024/01/24 12:31:40;;;;;;;;;;;14.10;99.90;;;;;;7333449;19;108498;-65
2024/01/24 12:34:10;;;;;;;;;;;14.10;99.90;;;;;;7332813;19;109002;-65
2024/01/24 12:36:37;;;;;;;;;;;14.10;99.90;;;;;;7337578;19;110141;-65
2024/01/24 12:39:04;;;;;;;;;;;14.10;99.90;;;;;;7333819;19;108490;-66
2024/01/24 12:41:32;;;;;;;;;;;14.00;99.90;;;;;;7337213;19;109151;-66
2024/01/24 12:43:59;;;;;;;;;;;14.00;99.90;;;;;;7334962;19;109101;-66
2024/01/24 12:46:27;;;;;;;;;;;14.00;99.90;;;;;;7333320;19;110419;-66
2024/01/24 12:48:57;;;;;;;;;;;13.90;99.90;;;;;;7335748;19;108373;-66
2024/01/24 12:51:24;;;;;;;;;;;13.90;99.90;;;;;;7333608;19;108821;-66
2024/01/24 12:53:53;;;;;;;;;;;13.90;99.90;;;;;;7333336;19;109445;-66
2024/01/24 12:56:20;;;;;;;;;;;13.90;99.90;;;;;;7335059;19;108624;-66
2024/01/24 12:58:47;;;;;;;;;;;14.00;99.90;;;;;;7334130;19;109828;-65
2024/01/24 13:01:14;;;;;;;;;;;14.00;99.90;;;;;;7333321;19;109480;-66
2024/01/24 13:03:44;;;;;;;;;;;14.00;99.90;;;;;;7343496;19;108660;-66
2024/01/24 13:06:11;;;;;;;;;;;13.90;99.90;;;;;;7337541;19;110465;-69
2024/01/24 13:08:41;;;;;;;;;;;13.90;99.90;;;;;;7338291;19;108724;-66
2024/01/24 13:11:08;;;;;;;;;;;13.90;99.90;;;;;;7338153;19;108473;-65
2024/01/24 13:13:35;;;;;;;;;;;13.90;99.90;;;;;;7337684;19;109668;-66
2024/01/24 13:16:03;;;;;;;;;;;13.90;99.90;;;;;;7339147;19;109181;-65
2024/01/24 13:18:30;;;;;;;;;;;13.90;99.90;;;;;;7339750;19;108811;-66
2024/01/24 13:20:57;;;;;;;;;;;13.90;99.90;;;;;;7337369;19;109212;-66
2024/01/24 13:23:24;;;;;;;;;;;13.90;99.90;;;;;;7346728;19;108609;-65
2024/01/24 13:25:51;;;;;;;;;;;13.90;99.90;;;;;;7339631;19;108957;-65
2024/01/24 13:28:19;;;;;;;;;;;13.80;99.90;;;;;;7336825;19;108449;-66
2024/01/24 13:30:50;;;;;;;;;;;13.70;99.90;;;;;;7341945;19;108895;-66
2024/01/24 13:33:18;;;;;;;;;;;13.70;99.90;;;;;;7338016;19;114171;-65
2024/01/24 13:35:45;;;;;;;;;;;13.80;99.90;;;;;;7341341;19;108414;-66
2024/01/24 13:38:13;;;;;;;;;;;13.70;99.90;;;;;;7340652;19;109324;-66
2024/01/24 13:40:40;;;;;;;;;;;13.70;99.90;;;;;;7337952;19;110807;-66
2024/01/24 13:43:07;;;;;;;;;;;13.60;99.90;;;;;;7340785;19;108460;-66
2024/01/24 13:45:34;;;;;;;;;;;13.70;99.90;;;;;;7344936;19;109172;-68
2024/01/24 13:48:07;;;;;;;;;;;13.60;99.90;;;;;;7338534;19;109787;-66
2024/01/24 13:50:36;;;;;;;;;;;13.60;99.90;;;;;;7337535;19;108335;-66
2024/01/24 13:53:03;;;;;;;;;;;13.60;99.90;;;;;;7338712;19;109266;-66
2024/01/24 13:55:31;;;;;;;;;;;13.60;99.90;;;;;;7337265;19;108354;-66
2024/01/24 13:58:00;;;;;;;;;;;13.50;99.90;;;;;;7337798;19;108923;-66
2024/01/24 14:00:27;;;;;;;;;;;13.60;99.90;;;;;;7338532;19;109142;-65
2024/01/24 14:02:55;;;;;;;;;;;13.50;99.90;;;;;;7337711;19;108422;-66
2024/01/24 14:05:22;;;;;;;;;;;13.50;99.90;;;;;;7338593;19;108945;-66
2024/01/24 14:07:50;;;;;;;;;;;13.50;99.90;;;;;;7342324;19;110215;-66
2024/01/24 14:10:17;;;;;;;;;;;13.50;99.90;;;;;;7340197;19;108988;-67